sensor_id;sensor_type;location;lat;lon;timestamp;pressure;altitude;pressure_sealevel;temperature;humidity
15670;BME280;18524;45.190;5.732;2022-11-15T00:03:24;99099.81;;;12.78;100.00
15670;BME280;18524;45.190;5.732;2022-11-15T00:08:15;99098.16;;;12.77;100.00
15670;BME280;18524;45.190;5.732;2022-11-15T00:13:11;99089.16;;;12.79;100.00
15670;BME280;18524;45.190;5.732;2022-11-15T00:18:10;99088.31;;;12.79;100.00
15670;BME280;18524;45.190;5.732;2022-11-15T00:23:03;99093.19;;;12.64;100.00
15670;BME280;18524;45.190;5.732;2022-11-15T00:27:57;99092.03;;;12.57;100.00
15670;BME280;18524;45.190;5.732;2022-11-15T00:32:48;99081.22;;;12.50;100.00
15670;BME280;18524;45.190;5.732;2022-11-15T00:37:39;99078.59;;;12.50;100.00
15670;BME280;18524;45.190;5.732;2022-11-15T00:42:29;99074.03;;;12.43;100.00
15670;BME280;18524;45.190;5.732;2022-11-15T00:47:19;99067.63;;;12.26;100.00
15670;BME280;18524;45.190;5.732;2022-11-15T00:52:10;99070.25;;;12.26;100.00
15670;BME280;18524;45.190;5.732;2022-11-15T00:57:00;99067.75;;;12.25;100.00
15670;BME280;18524;45.190;5.732;2022-11-15T01:01:50;99074.00;;;12.24;100.00
15670;BME280;18524;45.190;5.732;2022-11-15T01:06:41;99076.91;;;12.20;100.00
15670;BME280;18524;45.190;5.732;2022-11-15T01:11:31;99077.84;;;12.19;100.00
15670;BME280;18524;45.190;5.732;2022-11-15T01:16:22;99079.00;;;12.27;100.00
15670;BME280;18524;45.190;5.732;2022-11-15T01:21:17;99076.91;;;12.20;100.00
15670;BME280;18524;45.190;5.732;2022-11-15T01:26:10;99082.53;;;12.06;100.00
15670;BME280;18524;45.190;5.732;2022-11-15T01:31:02;99068.59;;;12.15;100.00
15670;BME280;18524;45.190;5.732;2022-11-15T01:35:53;99072.84;;;11.97;100.00
15670;BME280;18524;45.190;5.732;2022-11-15T01:40:43;99060.81;;;11.95;100.00
15670;BME280;18524;45.190;5.732;2022-11-15T01:45:33;99064.91;;;11.87;100.00
15670;BME280;18524;45.190;5.732;2022-11-15T01:50:28;99068.38;;;11.88;100.00
15670;BME280;18524;45.190;5.732;2022-11-15T01:55:23;99055.94;;;11.90;100.00
15670;BME280;18524;45.190;5.732;2022-11-15T02:00:15;99047.09;;;11.91;100.00
15670;BME280;18524;45.190;5.732;2022-11-15T02:05:06;99038.06;;;11.84;100.00
15670;BME280;18524;45.190;5.732;2022-11-15T02:10:09;99030.53;;;11.70;100.00
15670;BME280;18524;45.190;5.732;2022-11-15T02:15:00;99037.88;;;11.76;100.00
15670;BME280;18524;45.190;5.732;2022-11-15T02:35:22;99015.91;;;11.77;100.00
15670;BME280;18524;45.190;5.732;2022-11-15T02:40:43;98994.78;;;11.88;100.00
15670;BME280;18524;45.190;5.732;2022-11-15T02:45:48;98985.53;;;11.84;100.00
15670;BME280;18524;45.190;5.732;2022-11-15T02:50:40;98987.31;;;11.83;100.00
15670;BME280;18524;45.190;5.732;2022-11-15T03:00:24;98980.53;;;11.81;100.00
15670;BME280;18524;45.190;5.732;2022-11-15T03:15:29;98967.13;;;11.84;100.00
15670;BME280;18524;45.190;5.732;2022-11-15T03:20:23;98968.25;;;11.91;100.00
15670;BME280;18524;45.190;5.732;2022-11-15T03:25:19;98995.00;;;11.75;100.00
15670;BME280;18524;45.190;5.732;2022-11-15T03:30:11;98984.69;;;11.83;100.00
15670;BME280;18524;45.190;5.732;2022-11-15T03:35:03;98993.69;;;11.81;100.00
15670;BME280;18524;45.190;5.732;2022-11-15T03:39:55;98971.03;;;11.89;100.00
15670;BME280;18524;45.190;5.732;2022-11-15T03:50:04;98952.38;;;11.93;100.00
15670;BME280;18524;45.190;5.732;2022-11-15T03:54:57;98939.31;;;11.81;100.00
15670;BME280;18524;45.190;5.732;2022-11-15T03:59:50;98937.53;;;11.82;100.00
15670;BME280;18524;45.190;5.732;2022-11-15T04:04:40;98941.13;;;11.81;100.00
15670;BME280;18524;45.190;5.732;2022-11-15T04:09:30;98932.28;;;11.82;100.00
15670;BME280;18524;45.190;5.732;2022-11-15T04:14:21;98925.09;;;11.84;100.00
15670;BME280;18524;45.190;5.732;2022-11-15T04:19:11;98912.22;;;11.81;100.00
15670;BME280;18524;45.190;5.732;2022-11-15T04:24:20;98913.97;;;11.71;100.00
15670;BME280;18524;45.190;5.732;2022-11-15T04:29:10;98896.84;;;11.76;100.00
15670;BME280;18524;45.190;5.732;2022-11-15T04:34:20;98898.41;;;11.79;100.00
15670;BME280;18524;45.190;5.732;2022-11-15T04:39:10;98904.72;;;11.67;100.00
15670;BME280;18524;45.190;5.732;2022-11-15T04:44:00;98897.13;;;11.73;100.00
15670;BME280;18524;45.190;5.732;2022-11-15T04:48:51;98892.41;;;11.67;100.00
15670;BME280;18524;45.190;5.732;2022-11-15T04:53:42;98878.59;;;11.75;100.00
15670;BME280;18524;45.190;5.732;2022-11-15T04:58:32;98866.84;;;11.59;100.00
15670;BME280;18524;45.190;5.732;2022-11-15T05:03:22;98864.50;;;11.56;100.00
15670;BME280;18524;45.190;5.732;2022-11-15T05:08:32;98862.00;;;11.55;100.00
15670;BME280;18524;45.190;5.732;2022-11-15T05:13:22;98846.25;;;11.65;100.00
15670;BME280;18524;45.190;5.732;2022-11-15T05:18:13;98848.59;;;11.58;100.00
15670;BME280;18524;45.190;5.732;2022-11-15T05:23:03;98839.06;;;11.57;100.00
15670;BME280;18524;45.190;5.732;2022-11-15T05:27:53;98834.50;;;11.59;100.00
15670;BME280;18524;45.190;5.732;2022-11-15T05:32:44;98820.53;;;11.58;100.00
15670;BME280;18524;45.190;5.732;2022-11-15T05:37:35;98826.59;;;11.69;100.00
15670;BME280;18524;45.190;5.732;2022-11-15T05:42:26;98815.69;;;11.54;100.00
15670;BME280;18524;45.190;5.732;2022-11-15T05:47:20;98824.53;;;11.53;100.00
15670;BME280;18524;45.190;5.732;2022-11-15T05:52:14;98816.94;;;11.69;100.00
15670;BME280;18524;45.190;5.732;2022-11-15T05:57:06;98822.31;;;11.68;100.00
15670;BME280;18524;45.190;5.732;2022-11-15T06:01:57;98819.84;;;11.66;100.00
15670;BME280;18524;45.190;5.732;2022-11-15T06:06:47;98819.56;;;11.69;100.00
15670;BME280;18524;45.190;5.732;2022-11-15T06:11:38;98815.00;;;11.62;100.00
15670;BME280;18524;45.190;5.732;2022-11-15T06:16:28;98816.94;;;11.59;100.00
15670;BME280;18524;45.190;5.732;2022-11-15T06:21:18;98806.72;;;11.56;100.00
15670;BME280;18524;45.190;5.732;2022-11-15T06:26:09;98811.69;;;11.59;100.00
15670;BME280;18524;45.190;5.732;2022-11-15T06:31:10;98810.28;;;11.65;100.00
15670;BME280;18524;45.190;5.732;2022-11-15T06:36:05;98821.22;;;11.70;100.00
15670;BME280;18524;45.190;5.732;2022-11-15T06:41:05;98821.34;;;11.69;100.00
15670;BME280;18524;45.190;5.732;2022-11-15T06:45:57;98816.38;;;11.66;100.00
15670;BME280;18524;45.190;5.732;2022-11-15T06:50:52;98826.03;;;11.75;100.00
15670;BME280;18524;45.190;5.732;2022-11-15T06:55:43;98817.19;;;11.76;100.00
15670;BME280;18524;45.190;5.732;2022-11-15T07:00:33;98821.75;;;11.74;100.00
15670;BME280;18524;45.190;5.732;2022-11-15T07:05:23;98829.66;;;11.83;100.00
15670;BME280;18524;45.190;5.732;2022-11-15T07:10:14;98817.19;;;11.76;100.00
15670;BME280;18524;45.190;5.732;2022-11-15T07:15:06;98818.03;;;11.76;100.00
15670;BME280;18524;45.190;5.732;2022-11-15T07:19:56;98812.25;;;11.82;100.00
15670;BME280;18524;45.190;5.732;2022-11-15T07:24:47;98822.75;;;11.82;100.00
15670;BME280;18524;45.190;5.732;2022-11-15T07:29:37;98810.84;;;11.88;100.00
15670;BME280;18524;45.190;5.732;2022-11-15T07:34:27;98810.16;;;11.86;100.00
15670;BME280;18524;45.190;5.732;2022-11-15T07:39:18;98817.22;;;11.95;100.00
15670;BME280;18524;45.190;5.732;2022-11-15T07:44:08;98812.41;;;11.91;100.00
15670;BME280;18524;45.190;5.732;2022-11-15T07:48:59;98809.34;;;11.95;100.00
15670;BME280;18524;45.190;5.732;2022-11-15T07:53:49;98805.47;;;11.99;100.00
15670;BME280;18524;45.190;5.732;2022-11-15T07:58:39;98814.47;;;11.97;100.00
15670;BME280;18524;45.190;5.732;2022-11-15T08:03:30;98817.31;;;12.13;100.00
15670;BME280;18524;45.190;5.732;2022-11-15T08:08:20;98797.69;;;12.07;100.00
15670;BME280;18524;45.190;5.732;2022-11-15T08:13:12;98797.66;;;12.17;100.00
15670;BME280;18524;45.190;5.732;2022-11-15T08:18:05;98797.09;;;12.33;100.00
15670;BME280;18524;45.190;5.732;2022-11-15T08:23:00;98776.69;;;12.44;100.00
15670;BME280;18524;45.190;5.732;2022-11-15T08:27:56;98780.84;;;12.47;100.00
15670;BME280;18524;45.190;5.732;2022-11-15T08:32:47;98777.47;;;12.64;100.00
15670;BME280;18524;45.190;5.732;2022-11-15T08:37:38;98773.56;;;12.68;100.00
15670;BME280;18524;45.190;5.732;2022-11-15T08:42:29;98777.84;;;12.69;100.00
15670;BME280;18524;45.190;5.732;2022-11-15T08:47:19;98757.47;;;12.71;100.00
15670;BME280;18524;45.190;5.732;2022-11-15T08:52:09;98768.78;;;12.81;100.00
15670;BME280;18524;45.190;5.732;2022-11-15T08:57:00;98761.56;;;12.83;100.00
15670;BME280;18524;45.190;5.732;2022-11-15T09:01:50;98762.03;;;12.97;100.00
15670;BME280;18524;45.190;5.732;2022-11-15T09:06:40;98758.16;;;13.01;100.00
15670;BME280;18524;45.190;5.732;2022-11-15T09:11:31;98738.03;;;13.00;100.00
15670;BME280;18524;45.190;5.732;2022-11-15T09:16:22;98740.66;;;13.00;100.00
15670;BME280;18524;45.190;5.732;2022-11-15T09:21:13;98736.69;;;12.96;100.00
15670;BME280;18524;45.190;5.732;2022-11-15T09:26:04;98738.44;;;13.05;100.00
15670;BME280;18524;45.190;5.732;2022-11-15T09:30:56;98723.69;;;13.12;100.00
15670;BME280;18524;45.190;5.732;2022-11-15T09:35:47;98724.69;;;13.29;100.00
15670;BME280;18524;45.190;5.732;2022-11-15T09:40:38;98712.56;;;13.54;100.00
15670;BME280;18524;45.190;5.732;2022-11-15T09:45:34;98716.31;;;13.69;100.00
15670;BME280;18524;45.190;5.732;2022-11-15T09:50:39;98716.81;;;13.72;100.00
15670;BME280;18524;45.190;5.732;2022-11-15T09:55:40;98704.78;;;13.70;100.00
15670;BME280;18524;45.190;5.732;2022-11-15T10:00:38;98689.88;;;13.79;100.00
15670;BME280;18524;45.190;5.732;2022-11-15T10:05:31;98687.78;;;13.90;100.00
15670;BME280;18524;45.190;5.732;2022-11-15T10:10:39;98677.66;;;14.03;100.00
15670;BME280;18524;45.190;5.732;2022-11-15T10:15:31;98681.16;;;14.12;100.00
15670;BME280;18524;45.190;5.732;2022-11-15T10:20:27;98676.41;;;14.16;100.00
15670;BME280;18524;45.190;5.732;2022-11-15T10:25:24;98669.47;;;14.15;100.00
15670;BME280;18524;45.190;5.732;2022-11-15T10:30:17;98655.91;;;14.09;100.00
15670;BME280;18524;45.190;5.732;2022-11-15T10:35:26;98652.06;;;14.30;100.00
15670;BME280;18524;45.190;5.732;2022-11-15T10:40:22;98646.97;;;14.36;100.00
15670;BME280;18524;45.190;5.732;2022-11-15T10:45:28;98633.91;;;14.27;100.00
15670;BME280;18524;45.190;5.732;2022-11-15T10:50:31;98607.47;;;14.11;100.00
15670;BME280;18524;45.190;5.732;2022-11-15T10:55:25;98617.84;;;14.12;100.00
15670;BME280;18524;45.190;5.732;2022-11-15T11:05:27;98601.78;;;14.23;100.00
15670;BME280;18524;45.190;5.732;2022-11-15T11:10:20;98597.00;;;14.27;100.00
15670;BME280;18524;45.190;5.732;2022-11-15T11:15:14;98577.41;;;14.37;100.00
15670;BME280;18524;45.190;5.732;2022-11-15T11:25:28;98576.41;;;14.38;100.00
15670;BME280;18524;45.190;5.732;2022-11-15T11:30:24;98559.25;;;14.34;100.00
15670;BME280;18524;45.190;5.732;2022-11-15T11:40:51;98539.88;;;14.52;100.00
15670;BME280;18524;45.190;5.732;2022-11-15T11:56:43;98503.59;;;14.54;100.00
15670;BME280;18524;45.190;5.732;2022-11-15T12:01:39;98488.91;;;14.51;100.00
15670;BME280;18524;45.190;5.732;2022-11-15T12:16:42;98451.81;;;14.53;100.00
15670;BME280;18524;45.190;5.732;2022-11-15T12:26:57;98452.59;;;14.78;100.00
15670;BME280;18524;45.190;5.732;2022-11-15T12:31:52;98440.72;;;14.82;100.00
15670;BME280;18524;45.190;5.732;2022-11-15T12:36:46;98437.91;;;14.75;100.00
15670;BME280;18524;45.190;5.732;2022-11-15T12:41:40;98439.88;;;14.81;100.00
15670;BME280;18524;45.190;5.732;2022-11-15T12:52:03;98417.94;;;14.81;100.00
15670;BME280;18524;45.190;5.732;2022-11-15T12:56:33;98402.44;;;14.94;100.00
15670;BME280;18524;45.190;5.732;2022-11-15T13:07:05;98384.94;;;14.93;100.00
15670;BME280;18524;45.190;5.732;2022-11-15T13:22:10;98359.53;;;15.23;100.00
15670;BME280;18524;45.190;5.732;2022-11-15T13:27:19;98348.16;;;15.22;100.00
15670;BME280;18524;45.190;5.732;2022-11-15T13:32:14;98336.94;;;15.28;100.00
15670;BME280;18524;45.190;5.732;2022-11-15T13:37:33;98328.31;;;15.35;100.00
15670;BME280;18524;45.190;5.732;2022-11-15T13:42:28;98312.22;;;15.44;100.00
15670;BME280;18524;45.190;5.732;2022-11-15T13:47:19;98307.13;;;15.43;100.00
15670;BME280;18524;45.190;5.732;2022-11-15T13:52:13;98310.47;;;15.37;100.00
15670;BME280;18524;45.190;5.732;2022-11-15T13:57:05;98305.81;;;15.39;100.00
15670;BME280;18524;45.190;5.732;2022-11-15T14:02:03;98293.03;;;15.19;100.00
15670;BME280;18524;45.190;5.732;2022-11-15T14:07:01;98279.84;;;15.19;100.00
15670;BME280;18524;45.190;5.732;2022-11-15T14:11:55;98280.19;;;15.16;100.00
15670;BME280;18524;45.190;5.732;2022-11-15T14:16:48;98270.25;;;15.18;100.00
15670;BME280;18524;45.190;5.732;2022-11-15T14:22:59;98269.25;;;15.27;100.00
15670;BME280;18524;45.190;5.732;2022-11-15T14:27:27;98266.34;;;15.14;100.00
15670;BME280;18524;45.190;5.732;2022-11-15T14:32:26;98253.19;;;15.06;100.00
15670;BME280;18524;45.190;5.732;2022-11-15T14:37:23;98258.00;;;15.02;100.00
15670;BME280;18524;45.190;5.732;2022-11-15T14:42:14;98254.75;;;14.84;100.00
15670;BME280;18524;45.190;5.732;2022-11-15T14:47:04;98248.47;;;14.93;100.00
15670;BME280;18524;45.190;5.732;2022-11-15T14:51:56;98246.34;;;14.89;100.00
15670;BME280;18524;45.190;5.732;2022-11-15T14:56:46;98245.53;;;14.88;100.00
15670;BME280;18524;45.190;5.732;2022-11-15T15:01:37;98243.25;;;14.77;100.00
15670;BME280;18524;45.190;5.732;2022-11-15T15:06:27;98237.63;;;14.80;100.00
15670;BME280;18524;45.190;5.732;2022-11-15T15:11:23;98243.22;;;14.85;100.00
15670;BME280;18524;45.190;5.732;2022-11-15T15:16:14;98230.34;;;14.82;100.00
15670;BME280;18524;45.190;5.732;2022-11-15T15:21:22;98230.56;;;14.73;100.00
15670;BME280;18524;45.190;5.732;2022-11-15T15:26:13;98209.00;;;14.69;100.00
15670;BME280;18524;45.190;5.732;2022-11-15T15:31:03;98226.22;;;14.57;100.00
15670;BME280;18524;45.190;5.732;2022-11-15T15:35:54;98199.00;;;14.56;100.00
15670;BME280;18524;45.190;5.732;2022-11-15T15:40:44;98194.69;;;14.63;100.00
15670;BME280;18524;45.190;5.732;2022-11-15T15:45:37;98184.13;;;14.63;100.00
15670;BME280;18524;45.190;5.732;2022-11-15T15:50:32;98182.00;;;14.59;100.00
15670;BME280;18524;45.190;5.732;2022-11-15T15:55:23;98172.50;;;14.73;100.00
15670;BME280;18524;45.190;5.732;2022-11-15T16:00:15;98162.84;;;14.65;100.00
15670;BME280;18524;45.190;5.732;2022-11-15T16:05:07;98159.13;;;14.51;100.00
15670;BME280;18524;45.190;5.732;2022-11-15T16:09:57;98159.44;;;14.40;100.00
15670;BME280;18524;45.190;5.732;2022-11-15T16:14:50;98147.41;;;14.54;100.00
15670;BME280;18524;45.190;5.732;2022-11-15T16:19:41;98147.59;;;14.44;100.00
15670;BME280;18524;45.190;5.732;2022-11-15T16:24:31;98136.03;;;14.53;100.00
15670;BME280;18524;45.190;5.732;2022-11-15T16:29:22;98142.31;;;14.44;100.00
15670;BME280;18524;45.190;5.732;2022-11-15T16:34:13;98130.44;;;14.40;100.00
15670;BME280;18524;45.190;5.732;2022-11-15T16:39:03;98131.09;;;14.42;100.00
15670;BME280;18524;45.190;5.732;2022-11-15T16:43:54;98128.44;;;14.42;100.00
15670;BME280;18524;45.190;5.732;2022-11-15T16:48:45;98131.75;;;14.44;100.00
15670;BME280;18524;45.190;5.732;2022-11-15T16:53:36;98113.88;;;14.62;100.00
15670;BME280;18524;45.190;5.732;2022-11-15T16:58:27;98127.13;;;14.54;100.00
15670;BME280;18524;45.190;5.732;2022-11-15T17:03:18;98126.47;;;14.44;100.00
15670;BME280;18524;45.190;5.732;2022-11-15T17:08:08;98120.78;;;14.63;100.00
15670;BME280;18524;45.190;5.732;2022-11-15T17:12:58;98128.09;;;14.53;100.00
15670;BME280;18524;45.190;5.732;2022-11-15T17:17:53;98116.50;;;14.62;100.00
15670;BME280;18524;45.190;5.732;2022-11-15T17:22:43;98118.16;;;14.63;100.00
15670;BME280;18524;45.190;5.732;2022-11-15T17:27:34;98099.63;;;14.72;100.00
15670;BME280;18524;45.190;5.732;2022-11-15T17:32:24;98091.66;;;14.49;100.00
15670;BME280;18524;45.190;5.732;2022-11-15T17:37:15;98078.09;;;14.60;100.00
15670;BME280;18524;45.190;5.732;2022-11-15T17:42:05;98081.56;;;14.60;100.00
15670;BME280;18524;45.190;5.732;2022-11-15T17:46:55;98076.81;;;14.56;100.00
15670;BME280;18524;45.190;5.732;2022-11-15T17:51:46;98060.97;;;14.56;100.00
15670;BME280;18524;45.190;5.732;2022-11-15T17:56:38;98075.84;;;14.49;100.00
15670;BME280;18524;45.190;5.732;2022-11-15T18:01:31;98061.44;;;14.59;100.00
15670;BME280;18524;45.190;5.732;2022-11-15T18:06:23;98070.91;;;14.46;100.00
15670;BME280;18524;45.190;5.732;2022-11-15T18:11:19;98054.09;;;14.47;100.00
15670;BME280;18524;45.190;5.732;2022-11-15T18:16:13;98048.63;;;14.48;100.00
15670;BME280;18524;45.190;5.732;2022-11-15T18:21:17;98054.72;;;14.49;100.00
15670;BME280;18524;45.190;5.732;2022-11-15T18:26:11;98050.63;;;14.46;100.00
15670;BME280;18524;45.190;5.732;2022-11-15T18:31:10;98051.94;;;14.50;100.00
15670;BME280;18524;45.190;5.732;2022-11-15T18:36:06;98048.81;;;14.47;100.00
15670;BME280;18524;45.190;5.732;2022-11-15T18:41:04;98057.72;;;14.46;100.00
15670;BME280;18524;45.190;5.732;2022-11-15T18:45:55;98061.69;;;14.50;100.00
15670;BME280;18524;45.190;5.732;2022-11-15T18:50:50;98057.75;;;14.37;100.00
15670;BME280;18524;45.190;5.732;2022-11-15T18:55:40;98037.81;;;14.35;100.00
15670;BME280;18524;45.190;5.732;2022-11-15T19:00:31;98048.38;;;14.35;100.00
15670;BME280;18524;45.190;5.732;2022-11-15T19:05:21;98037.88;;;14.27;100.00
15670;BME280;18524;45.190;5.732;2022-11-15T19:10:12;98025.69;;;14.26;100.00
15670;BME280;18524;45.190;5.732;2022-11-15T19:15:03;98042.28;;;14.34;100.00
15670;BME280;18524;45.190;5.732;2022-11-15T19:19:53;98038.41;;;14.22;100.00
15670;BME280;18524;45.190;5.732;2022-11-15T19:24:43;98044.88;;;14.12;100.00
15670;BME280;18524;45.190;5.732;2022-11-15T19:29:34;98026.63;;;14.02;100.00
15670;BME280;18524;45.190;5.732;2022-11-15T19:34:24;98004.72;;;14.01;100.00
15670;BME280;18524;45.190;5.732;2022-11-15T19:39:14;98024.53;;;13.97;100.00
15670;BME280;18524;45.190;5.732;2022-11-15T19:44:07;98005.78;;;13.92;100.00
15670;BME280;18524;45.190;5.732;2022-11-15T19:48:58;98035.63;;;13.85;100.00
15670;BME280;18524;45.190;5.732;2022-11-15T19:53:52;97998.84;;;13.91;100.00
15670;BME280;18524;45.190;5.732;2022-11-15T19:58:44;98017.13;;;13.93;100.00
15670;BME280;18524;45.190;5.732;2022-11-15T20:03:34;98012.06;;;13.83;100.00
15670;BME280;18524;45.190;5.732;2022-11-15T20:08:25;98019.97;;;13.83;100.00
15670;BME280;18524;45.190;5.732;2022-11-15T20:13:15;98009.28;;;13.85;100.00
15670;BME280;18524;45.190;5.732;2022-11-15T20:18:05;98024.03;;;13.94;100.00
15670;BME280;18524;45.190;5.732;2022-11-15T20:22:56;98029.53;;;13.84;100.00
15670;BME280;18524;45.190;5.732;2022-11-15T20:27:46;98014.88;;;13.82;100.00
15670;BME280;18524;45.190;5.732;2022-11-15T20:32:36;98012.25;;;13.73;100.00
15670;BME280;18524;45.190;5.732;2022-11-15T20:37:27;98018.56;;;13.64;100.00
15670;BME280;18524;45.190;5.732;2022-11-15T20:42:17;98016.44;;;13.60;100.00
15670;BME280;18524;45.190;5.732;2022-11-15T20:47:08;98041.66;;;13.54;100.00
15670;BME280;18524;45.190;5.732;2022-11-15T20:51:58;98044.63;;;13.51;100.00
15670;BME280;18524;45.190;5.732;2022-11-15T20:56:48;98049.69;;;13.61;100.00
15670;BME280;18524;45.190;5.732;2022-11-15T21:01:39;98056.78;;;13.60;100.00
15670;BME280;18524;45.190;5.732;2022-11-15T21:06:29;98056.88;;;13.75;100.00
15670;BME280;18524;45.190;5.732;2022-11-15T21:11:19;98055.91;;;13.76;100.00
15670;BME280;18524;45.190;5.732;2022-11-15T21:16:28;98063.44;;;13.87;100.00
15670;BME280;18524;45.190;5.732;2022-11-15T21:21:19;98066.22;;;13.94;100.00
15670;BME280;18524;45.190;5.732;2022-11-15T21:26:09;98083.28;;;14.06;100.00
15670;BME280;18524;45.190;5.732;2022-11-15T21:31:00;98089.06;;;14.01;100.00
15670;BME280;18524;45.190;5.732;2022-11-15T21:35:50;98105.44;;;13.89;100.00
15670;BME280;18524;45.190;5.732;2022-11-15T21:40:40;98111.22;;;13.84;100.00
15670;BME280;18524;45.190;5.732;2022-11-15T21:45:31;98102.66;;;13.74;100.00
15670;BME280;18524;45.190;5.732;2022-11-15T21:50:21;98114.19;;;13.81;100.00
15670;BME280;18524;45.190;5.732;2022-11-15T21:55:12;98125.09;;;13.78;100.00
15670;BME280;18524;45.190;5.732;2022-11-15T22:00:03;98115.19;;;13.72;100.00
15670;BME280;18524;45.190;5.732;2022-11-15T22:05:12;98106.47;;;13.80;100.00
15670;BME280;18524;45.190;5.732;2022-11-15T22:10:02;98122.09;;;13.73;100.00
15670;BME280;18524;45.190;5.732;2022-11-15T22:14:53;98114.88;;;13.67;100.00
15670;BME280;18524;45.190;5.732;2022-11-15T22:19:43;98121.16;;;13.58;100.00
15670;BME280;18524;45.190;5.732;2022-11-15T22:24:34;98109.16;;;13.31;100.00
15670;BME280;18524;45.190;5.732;2022-11-15T22:29:24;98109.00;;;13.49;100.00
15670;BME280;18524;45.190;5.732;2022-11-15T22:34:15;98112.47;;;13.41;100.00
15670;BME280;18524;45.190;5.732;2022-11-15T22:39:05;98116.28;;;13.38;100.00
15670;BME280;18524;45.190;5.732;2022-11-15T22:43:55;98105.88;;;13.37;100.00
15670;BME280;18524;45.190;5.732;2022-11-15T22:48:46;98115.75;;;13.35;100.00
15670;BME280;18524;45.190;5.732;2022-11-15T22:53:36;98106.72;;;13.29;100.00
15670;BME280;18524;45.190;5.732;2022-11-15T22:58:28;98111.34;;;13.19;100.00
15670;BME280;18524;45.190;5.732;2022-11-15T23:03:20;98109.81;;;13.17;100.00
15670;BME280;18524;45.190;5.732;2022-11-15T23:08:10;98106.22;;;13.18;100.00
15670;BME280;18524;45.190;5.732;2022-11-15T23:13:07;98116.91;;;13.24;100.00
15670;BME280;18524;45.190;5.732;2022-11-15T23:18:06;98096.50;;;13.26;100.00
15670;BME280;18524;45.190;5.732;2022-11-15T23:22:57;98092.56;;;13.22;100.00
15670;BME280;18524;45.190;5.732;2022-11-15T23:27:48;98109.16;;;13.14;100.00
15670;BME280;18524;45.190;5.732;2022-11-15T23:32:38;98122.81;;;13.02;100.00
15670;BME280;18524;45.190;5.732;2022-11-15T23:37:47;98126.13;;;13.04;100.00
15670;BME280;18524;45.190;5.732;2022-11-15T23:42:38;98153.38;;;12.95;100.00
15670;BME280;18524;45.190;5.732;2022-11-15T23:47:28;98198.16;;;13.03;100.00
15670;BME280;18524;45.190;5.732;2022-11-15T23:52:19;98181.88;;;13.15;100.00
15670;BME280;18524;45.190;5.732;2022-11-15T23:57:12;98200.19;;;13.17;100.00
